Greenbush, Virginia
Current Conditions -  °F | °C
As of 8:55 AM on Wednesday 26 Nov 2014 (Local Time) from KMFV Reporting Station
Moderate Rain Moderate Rain  
Wind Chill: 39°   Ceiling: 500
Heat Index: 45°   Visibility: 3mi
Dew Point: 43°   Wind: 10mph
Humidity: 93%   Direction: 10°N
Pressure: 29.93"   Gusts: 18mph
Location:  37.74°N, 75.68°W
Report Text: KMFV 261355Z AUTO 01009G16KT 3SM RA OVC005 07/06 A2993 RMK AO2 P0017
Loading
Personal Weather Stations






























Interactive Weather Map New forecast layout! Learn more

10-Day Weather Forecast

Advertisements
Track Severe Weather on mobile